<?xml version="1.0" encoding="UTF-8" standalone="no" ?>
<gpx xmlns="http://www.topografix.com/GPX/1/1" xmlns:xsi="http://www.w3.org/2001/XMLSchema-instance" xsi:schemaLocation="http://www.topografix.com/GPX/1/1 http://www.topografix.com/GPX/1/1/gpx.xsd" version="1.1" creator="VisuGPX - https://www.visugpx.com">
  <metadata>
    <name>Artichaut 2025 - course 5 kms</name>
    <desc><![CDATA[Nouveau parcours 2025 très roulant uniquement sur route avec mesurage officiel]]></desc>
  </metadata>
  <trk>
    <name><![CDATA[5 km 2025-20596959]]></name>
    <trkseg>
      <trkpt lat="45.00541" lon="-0.62513">
        <ele>10</ele>
        <time>2025-02-05T05:06:32Z</time>
      </trkpt>
      <trkpt lat="45.00582" lon="-0.62427">
        <ele>7</ele>
        <time>2025-02-05T05:06:56Z</time>
      </trkpt>
      <trkpt lat="45.00583" lon="-0.6242">
        <ele>7</ele>
        <time>2025-02-05T05:06:58Z</time>
      </trkpt>
      <trkpt lat="45.00582" lon="-0.62409">
        <ele>7</ele>
        <time>2025-02-05T05:07:01Z</time>
      </trkpt>
      <trkpt lat="45.00579" lon="-0.62401">
        <ele>7</ele>
        <time>2025-02-05T05:07:03Z</time>
      </trkpt>
      <trkpt lat="45.00574" lon="-0.62394">
        <ele>7</ele>
        <time>2025-02-05T05:07:05Z</time>
      </trkpt>
      <trkpt lat="45.00569" lon="-0.62386">
        <ele>6</ele>
        <time>2025-02-05T05:07:08Z</time>
      </trkpt>
      <trkpt lat="45.00562" lon="-0.62377">
        <ele>6</ele>
        <time>2025-02-05T05:07:11Z</time>
      </trkpt>
      <trkpt lat="45.00552" lon="-0.62372">
        <ele>7</ele>
        <time>2025-02-05T05:07:14Z</time>
      </trkpt>
      <trkpt lat="45.00542" lon="-0.6237">
        <ele>7</ele>
        <time>2025-02-05T05:07:18Z</time>
      </trkpt>
      <trkpt lat="45.0053" lon="-0.62371">
        <ele>7</ele>
        <time>2025-02-05T05:07:22Z</time>
      </trkpt>
      <trkpt lat="45.00472" lon="-0.62476">
        <ele>10</ele>
        <time>2025-02-05T05:07:53Z</time>
      </trkpt>
      <trkpt lat="45.00469" lon="-0.62493">
        <ele>11</ele>
        <time>2025-02-05T05:07:57Z</time>
      </trkpt>
      <trkpt lat="45.00472" lon="-0.62505">
        <ele>11</ele>
        <time>2025-02-05T05:08:00Z</time>
      </trkpt>
      <trkpt lat="45.00475" lon="-0.62519">
        <ele>11</ele>
        <time>2025-02-05T05:08:04Z</time>
      </trkpt>
      <trkpt lat="45.00483" lon="-0.62527">
        <ele>11</ele>
        <time>2025-02-05T05:08:07Z</time>
      </trkpt>
      <trkpt lat="45.0049" lon="-0.62535">
        <ele>11</ele>
        <time>2025-02-05T05:08:10Z</time>
      </trkpt>
      <trkpt lat="45.005" lon="-0.62541">
        <ele>11</ele>
        <time>2025-02-05T05:08:14Z</time>
      </trkpt>
      <trkpt lat="45.00511" lon="-0.62543">
        <ele>11</ele>
        <time>2025-02-05T05:08:17Z</time>
      </trkpt>
      <trkpt lat="45.00516" lon="-0.62544">
        <ele>11</ele>
        <time>2025-02-05T05:08:19Z</time>
      </trkpt>
      <trkpt lat="45.0053" lon="-0.62558">
        <ele>11</ele>
        <time>2025-02-05T05:08:25Z</time>
      </trkpt>
      <trkpt lat="45.00604" lon="-0.62415">
        <ele>7</ele>
        <time>2025-02-05T05:09:07Z</time>
      </trkpt>
      <trkpt lat="45.00642" lon="-0.6234">
        <ele>7</ele>
        <time>2025-02-05T05:09:28Z</time>
      </trkpt>
      <trkpt lat="45.00673" lon="-0.62371">
        <ele>7</ele>
        <time>2025-02-05T05:09:41Z</time>
      </trkpt>
      <trkpt lat="45.00677" lon="-0.62394">
        <ele>8</ele>
        <time>2025-02-05T05:09:47Z</time>
      </trkpt>
      <trkpt lat="45.00674" lon="-0.62497">
        <ele>10</ele>
        <time>2025-02-05T05:10:11Z</time>
      </trkpt>
      <trkpt lat="45.00673" lon="-0.62571">
        <ele>10</ele>
        <time>2025-02-05T05:10:28Z</time>
      </trkpt>
      <trkpt lat="45.00678" lon="-0.62619">
        <ele>10</ele>
        <time>2025-02-05T05:10:40Z</time>
      </trkpt>
      <trkpt lat="45.00694" lon="-0.62703">
        <ele>10</ele>
        <time>2025-02-05T05:11:00Z</time>
      </trkpt>
      <trkpt lat="45.00704" lon="-0.62776">
        <ele>10</ele>
        <time>2025-02-05T05:11:18Z</time>
      </trkpt>
      <trkpt lat="45.00704" lon="-0.62809">
        <ele>10</ele>
        <time>2025-02-05T05:11:26Z</time>
      </trkpt>
      <trkpt lat="45.00702" lon="-0.62836">
        <ele>10</ele>
        <time>2025-02-05T05:11:32Z</time>
      </trkpt>
      <trkpt lat="45.00693" lon="-0.62883">
        <ele>9</ele>
        <time>2025-02-05T05:11:44Z</time>
      </trkpt>
      <trkpt lat="45.00676" lon="-0.62962">
        <ele>8</ele>
        <time>2025-02-05T05:12:03Z</time>
      </trkpt>
      <trkpt lat="45.00669" lon="-0.62999">
        <ele>7</ele>
        <time>2025-02-05T05:12:12Z</time>
      </trkpt>
      <trkpt lat="45.00663" lon="-0.63026">
        <ele>8</ele>
        <time>2025-02-05T05:12:19Z</time>
      </trkpt>
      <trkpt lat="45.00659" lon="-0.63039">
        <ele>9</ele>
        <time>2025-02-05T05:12:22Z</time>
      </trkpt>
      <trkpt lat="45.00655" lon="-0.63044">
        <ele>9</ele>
        <time>2025-02-05T05:12:24Z</time>
      </trkpt>
      <trkpt lat="45.00653" lon="-0.63047">
        <ele>9</ele>
        <time>2025-02-05T05:12:25Z</time>
      </trkpt>
      <trkpt lat="45.00638" lon="-0.63089">
        <ele>11</ele>
        <time>2025-02-05T05:12:36Z</time>
      </trkpt>
      <trkpt lat="45.0062" lon="-0.63134">
        <ele>12</ele>
        <time>2025-02-05T05:12:48Z</time>
      </trkpt>
      <trkpt lat="45.006" lon="-0.63176">
        <ele>13</ele>
        <time>2025-02-05T05:13:00Z</time>
      </trkpt>
      <trkpt lat="45.00557" lon="-0.63262">
        <ele>12</ele>
        <time>2025-02-05T05:13:25Z</time>
      </trkpt>
      <trkpt lat="45.00541" lon="-0.63305">
        <ele>11</ele>
        <time>2025-02-05T05:13:36Z</time>
      </trkpt>
      <trkpt lat="45.00513" lon="-0.63391">
        <ele>10</ele>
        <time>2025-02-05T05:13:59Z</time>
      </trkpt>
      <trkpt lat="45.00505" lon="-0.63422">
        <ele>11</ele>
        <time>2025-02-05T05:14:07Z</time>
      </trkpt>
      <trkpt lat="45.00488" lon="-0.63523">
        <ele>10</ele>
        <time>2025-02-05T05:14:31Z</time>
      </trkpt>
      <trkpt lat="45.0048" lon="-0.63577">
        <ele>11</ele>
        <time>2025-02-05T05:14:44Z</time>
      </trkpt>
      <trkpt lat="45.00461" lon="-0.63712">
        <ele>11</ele>
        <time>2025-02-05T05:15:17Z</time>
      </trkpt>
      <trkpt lat="45.00435" lon="-0.63882">
        <ele>12</ele>
        <time>2025-02-05T05:15:58Z</time>
      </trkpt>
      <trkpt lat="45.0042" lon="-0.63977">
        <ele>14</ele>
        <time>2025-02-05T05:16:21Z</time>
      </trkpt>
      <trkpt lat="45.00412" lon="-0.64017">
        <ele>14</ele>
        <time>2025-02-05T05:16:30Z</time>
      </trkpt>
      <trkpt lat="45.00403" lon="-0.6405">
        <ele>14</ele>
        <time>2025-02-05T05:16:39Z</time>
      </trkpt>
      <trkpt lat="45.00379" lon="-0.64116">
        <ele>13</ele>
        <time>2025-02-05T05:16:56Z</time>
      </trkpt>
      <trkpt lat="45.00449" lon="-0.64078">
        <ele>14</ele>
        <time>2025-02-05T05:17:21Z</time>
      </trkpt>
      <trkpt lat="45.00497" lon="-0.64068">
        <ele>13</ele>
        <time>2025-02-05T05:17:37Z</time>
      </trkpt>
      <trkpt lat="45.00529" lon="-0.64089">
        <ele>12</ele>
        <time>2025-02-05T05:17:49Z</time>
      </trkpt>
      <trkpt lat="45.00547" lon="-0.6411">
        <ele>12</ele>
        <time>2025-02-05T05:17:57Z</time>
      </trkpt>
      <trkpt lat="45.00559" lon="-0.64132">
        <ele>11</ele>
        <time>2025-02-05T05:18:03Z</time>
      </trkpt>
      <trkpt lat="45.00569" lon="-0.64147">
        <ele>11</ele>
        <time>2025-02-05T05:18:08Z</time>
      </trkpt>
      <trkpt lat="45.00593" lon="-0.64156">
        <ele>11</ele>
        <time>2025-02-05T05:18:17Z</time>
      </trkpt>
      <trkpt lat="45.00609" lon="-0.64175">
        <ele>11</ele>
        <time>2025-02-05T05:18:24Z</time>
      </trkpt>
      <trkpt lat="45.00617" lon="-0.64202">
        <ele>12</ele>
        <time>2025-02-05T05:18:31Z</time>
      </trkpt>
      <trkpt lat="45.00621" lon="-0.6427">
        <ele>13</ele>
        <time>2025-02-05T05:18:47Z</time>
      </trkpt>
      <trkpt lat="45.00633" lon="-0.6434">
        <ele>14</ele>
        <time>2025-02-05T05:19:04Z</time>
      </trkpt>
      <trkpt lat="45.0057" lon="-0.64321">
        <ele>12</ele>
        <time>2025-02-05T05:19:25Z</time>
      </trkpt>
      <trkpt lat="45.00543" lon="-0.64318">
        <ele>11</ele>
        <time>2025-02-05T05:19:34Z</time>
      </trkpt>
      <trkpt lat="45.00417" lon="-0.64333">
        <ele>10</ele>
        <time>2025-02-05T05:20:16Z</time>
      </trkpt>
      <trkpt lat="45.00368" lon="-0.64339">
        <ele>9</ele>
        <time>2025-02-05T05:20:33Z</time>
      </trkpt>
      <trkpt lat="45.00297" lon="-0.64335">
        <ele>10</ele>
        <time>2025-02-05T05:20:56Z</time>
      </trkpt>
      <trkpt lat="45.00325" lon="-0.64247">
        <ele>11</ele>
        <time>2025-02-05T05:21:19Z</time>
      </trkpt>
      <trkpt lat="45.00367" lon="-0.64135">
        <ele>12</ele>
        <time>2025-02-05T05:21:49Z</time>
      </trkpt>
      <trkpt lat="45.00382" lon="-0.64102">
        <ele>13</ele>
        <time>2025-02-05T05:21:58Z</time>
      </trkpt>
      <trkpt lat="45.00396" lon="-0.64063">
        <ele>14</ele>
        <time>2025-02-05T05:22:09Z</time>
      </trkpt>
      <trkpt lat="45.00406" lon="-0.64032">
        <ele>14</ele>
        <time>2025-02-05T05:22:17Z</time>
      </trkpt>
      <trkpt lat="45.00416" lon="-0.63991">
        <ele>14</ele>
        <time>2025-02-05T05:22:27Z</time>
      </trkpt>
      <trkpt lat="45.00425" lon="-0.63936">
        <ele>13</ele>
        <time>2025-02-05T05:22:40Z</time>
      </trkpt>
      <trkpt lat="45.00432" lon="-0.63885">
        <ele>12</ele>
        <time>2025-02-05T05:22:53Z</time>
      </trkpt>
      <trkpt lat="45.0044" lon="-0.63837">
        <ele>12</ele>
        <time>2025-02-05T05:23:04Z</time>
      </trkpt>
      <trkpt lat="45.00457" lon="-0.6373">
        <ele>11</ele>
        <time>2025-02-05T05:23:30Z</time>
      </trkpt>
      <trkpt lat="45.00469" lon="-0.63649">
        <ele>10</ele>
        <time>2025-02-05T05:23:50Z</time>
      </trkpt>
      <trkpt lat="45.0048" lon="-0.63568">
        <ele>11</ele>
        <time>2025-02-05T05:24:09Z</time>
      </trkpt>
      <trkpt lat="45.00494" lon="-0.63479">
        <ele>10</ele>
        <time>2025-02-05T05:24:30Z</time>
      </trkpt>
      <trkpt lat="45.00498" lon="-0.63455">
        <ele>11</ele>
        <time>2025-02-05T05:24:36Z</time>
      </trkpt>
      <trkpt lat="45.00505" lon="-0.63419">
        <ele>11</ele>
        <time>2025-02-05T05:24:45Z</time>
      </trkpt>
      <trkpt lat="45.00513" lon="-0.63385">
        <ele>10</ele>
        <time>2025-02-05T05:24:54Z</time>
      </trkpt>
      <trkpt lat="45.00528" lon="-0.63338">
        <ele>9</ele>
        <time>2025-02-05T05:25:06Z</time>
      </trkpt>
      <trkpt lat="45.00546" lon="-0.63287">
        <ele>11</ele>
        <time>2025-02-05T05:25:19Z</time>
      </trkpt>
      <trkpt lat="45.00556" lon="-0.63261">
        <ele>12</ele>
        <time>2025-02-05T05:25:26Z</time>
      </trkpt>
      <trkpt lat="45.00592" lon="-0.63189">
        <ele>13</ele>
        <time>2025-02-05T05:25:47Z</time>
      </trkpt>
      <trkpt lat="45.00607" lon="-0.63158">
        <ele>13</ele>
        <time>2025-02-05T05:25:56Z</time>
      </trkpt>
      <trkpt lat="45.00622" lon="-0.63125">
        <ele>12</ele>
        <time>2025-02-05T05:26:05Z</time>
      </trkpt>
      <trkpt lat="45.00636" lon="-0.6309">
        <ele>11</ele>
        <time>2025-02-05T05:26:15Z</time>
      </trkpt>
      <trkpt lat="45.00651" lon="-0.63046">
        <ele>9</ele>
        <time>2025-02-05T05:26:26Z</time>
      </trkpt>
      <trkpt lat="45.00657" lon="-0.63039">
        <ele>9</ele>
        <time>2025-02-05T05:26:29Z</time>
      </trkpt>
      <trkpt lat="45.00662" lon="-0.63028">
        <ele>8</ele>
        <time>2025-02-05T05:26:32Z</time>
      </trkpt>
      <trkpt lat="45.00666" lon="-0.63004">
        <ele>7</ele>
        <time>2025-02-05T05:26:38Z</time>
      </trkpt>
      <trkpt lat="45.00673" lon="-0.6297">
        <ele>7</ele>
        <time>2025-02-05T05:26:46Z</time>
      </trkpt>
      <trkpt lat="45.00689" lon="-0.62898">
        <ele>9</ele>
        <time>2025-02-05T05:27:04Z</time>
      </trkpt>
      <trkpt lat="45.00699" lon="-0.62854">
        <ele>10</ele>
        <time>2025-02-05T05:27:15Z</time>
      </trkpt>
      <trkpt lat="45.00701" lon="-0.62831">
        <ele>10</ele>
        <time>2025-02-05T05:27:20Z</time>
      </trkpt>
      <trkpt lat="45.00702" lon="-0.62812">
        <ele>10</ele>
        <time>2025-02-05T05:27:25Z</time>
      </trkpt>
      <trkpt lat="45.00703" lon="-0.62779">
        <ele>10</ele>
        <time>2025-02-05T05:27:32Z</time>
      </trkpt>
      <trkpt lat="45.00693" lon="-0.62707">
        <ele>10</ele>
        <time>2025-02-05T05:27:50Z</time>
      </trkpt>
      <trkpt lat="45.00677" lon="-0.62626">
        <ele>10</ele>
        <time>2025-02-05T05:28:10Z</time>
      </trkpt>
      <trkpt lat="45.00672" lon="-0.62576">
        <ele>10</ele>
        <time>2025-02-05T05:28:21Z</time>
      </trkpt>
      <trkpt lat="45.00672" lon="-0.62527">
        <ele>10</ele>
        <time>2025-02-05T05:28:33Z</time>
      </trkpt>
      <trkpt lat="45.00673" lon="-0.62482">
        <ele>10</ele>
        <time>2025-02-05T05:28:44Z</time>
      </trkpt>
      <trkpt lat="45.00675" lon="-0.62416">
        <ele>8</ele>
        <time>2025-02-05T05:28:59Z</time>
      </trkpt>
      <trkpt lat="45.00676" lon="-0.62397">
        <ele>8</ele>
        <time>2025-02-05T05:29:04Z</time>
      </trkpt>
      <trkpt lat="45.00672" lon="-0.62374">
        <ele>7</ele>
        <time>2025-02-05T05:29:09Z</time>
      </trkpt>
      <trkpt lat="45.00641" lon="-0.62339">
        <ele>6</ele>
        <time>2025-02-05T05:29:23Z</time>
      </trkpt>
      <trkpt lat="45.00611" lon="-0.62398">
        <ele>7</ele>
        <time>2025-02-05T05:29:40Z</time>
      </trkpt>
      <trkpt lat="45.00596" lon="-0.62415">
        <ele>7</ele>
        <time>2025-02-05T05:29:46Z</time>
      </trkpt>
      <trkpt lat="45.00584" lon="-0.62405">
        <ele>7</ele>
        <time>2025-02-05T05:29:51Z</time>
      </trkpt>
      <trkpt lat="45.00577" lon="-0.62392">
        <ele>6</ele>
        <time>2025-02-05T05:29:55Z</time>
      </trkpt>
      <trkpt lat="45.00569" lon="-0.62383">
        <ele>6</ele>
        <time>2025-02-05T05:29:58Z</time>
      </trkpt>
      <trkpt lat="45.0056" lon="-0.62374">
        <ele>6</ele>
        <time>2025-02-05T05:30:02Z</time>
      </trkpt>
      <trkpt lat="45.00552" lon="-0.62369">
        <ele>7</ele>
        <time>2025-02-05T05:30:05Z</time>
      </trkpt>
      <trkpt lat="45.0054" lon="-0.62367">
        <ele>7</ele>
        <time>2025-02-05T05:30:09Z</time>
      </trkpt>
      <trkpt lat="45.00531" lon="-0.62369">
        <ele>7</ele>
        <time>2025-02-05T05:30:12Z</time>
      </trkpt>
      <trkpt lat="45.0047" lon="-0.62478">
        <ele>10</ele>
        <time>2025-02-05T05:30:44Z</time>
      </trkpt>
      <trkpt lat="45.00467" lon="-0.62495">
        <ele>11</ele>
        <time>2025-02-05T05:30:49Z</time>
      </trkpt>
      <trkpt lat="45.0047" lon="-0.62506">
        <ele>11</ele>
        <time>2025-02-05T05:30:51Z</time>
      </trkpt>
      <trkpt lat="45.00477" lon="-0.62523">
        <ele>11</ele>
        <time>2025-02-05T05:30:56Z</time>
      </trkpt>
      <trkpt lat="45.00484" lon="-0.62531">
        <ele>11</ele>
        <time>2025-02-05T05:30:59Z</time>
      </trkpt>
      <trkpt lat="45.00494" lon="-0.6254">
        <ele>11</ele>
        <time>2025-02-05T05:31:03Z</time>
      </trkpt>
      <trkpt lat="45.00505" lon="-0.62544">
        <ele>11</ele>
        <time>2025-02-05T05:31:07Z</time>
      </trkpt>
      <trkpt lat="45.00513" lon="-0.62545">
        <ele>11</ele>
        <time>2025-02-05T05:31:09Z</time>
      </trkpt>
      <trkpt lat="45.00521" lon="-0.62545">
        <ele>11</ele>
        <time>2025-02-05T05:31:12Z</time>
      </trkpt>
      <trkpt lat="45.00526" lon="-0.62542">
        <ele>11</ele>
        <time>2025-02-05T05:31:14Z</time>
      </trkpt>
      <trkpt lat="45.00553" lon="-0.62482">
        <ele>9</ele>
        <time>2025-02-05T05:31:31Z</time>
      </trkpt>
    </trkseg>
  </trk>
</gpx>